createdAt,value
2018-08-23T00:00:25.474Z,18.89
2018-08-23T00:02:36.736Z,18.96
2018-08-23T00:03:36.769Z,18.89
2018-08-23T00:04:57.195Z,18.93
2018-08-23T00:07:08.465Z,18.89
2018-08-23T00:08:09.948Z,18.87
2018-08-23T00:09:08.472Z,18.86
2018-08-23T00:10:29.983Z,18.86
2018-08-23T00:11:29.964Z,18.90
2018-08-23T00:12:09.431Z,18.87
2018-08-23T00:13:29.965Z,18.89
2018-08-23T00:14:36.472Z,18.87
2018-08-23T00:15:09.464Z,18.76
2018-08-23T00:16:09.465Z,18.84
2018-08-23T00:17:09.464Z,18.74
2018-08-23T00:18:09.958Z,18.76
2018-08-23T00:19:12.898Z,18.72
2018-08-23T00:20:09.964Z,18.75
2018-08-23T00:21:11.396Z,18.65
2018-08-23T00:23:41.718Z,18.71
2018-08-23T00:24:41.725Z,18.66
2018-08-23T00:25:41.722Z,18.72
2018-08-23T00:26:46.158Z,18.72
2018-08-23T00:27:45.159Z,18.60
2018-08-23T00:28:48.225Z,18.59
2018-08-23T00:29:42.163Z,18.54
2018-08-23T00:31:03.226Z,18.47
2018-08-23T00:31:42.227Z,18.35
2018-08-23T00:32:41.829Z,18.38
2018-08-23T00:33:42.725Z,18.36
2018-08-23T00:34:44.659Z,18.54
2018-08-23T00:35:42.724Z,18.50
2018-08-23T00:36:42.345Z,18.53
2018-08-23T00:37:42.446Z,18.51
2018-08-23T00:39:03.526Z,18.53
2018-08-23T00:39:43.225Z,18.54
2018-08-23T00:40:44.657Z,18.35
2018-08-23T00:41:43.732Z,18.39
2018-08-23T00:42:43.725Z,18.39
2018-08-23T00:43:43.724Z,18.39
2018-08-23T00:44:43.200Z,18.39
2018-08-23T00:45:44.262Z,18.41
2018-08-23T00:46:44.248Z,18.41
2018-08-23T00:47:44.226Z,18.39
2018-08-23T00:48:44.232Z,18.41
2018-08-23T00:53:08.414Z,18.42
2018-08-23T00:53:46.767Z,18.42
2018-08-23T00:54:47.421Z,18.42
2018-08-23T00:55:53.922Z,18.36
2018-08-23T00:56:49.925Z,18.41
2018-08-23T00:57:47.919Z,18.38
2018-08-23T00:58:47.921Z,18.38
2018-08-23T00:59:47.522Z,18.42
2018-08-23T01:01:11.422Z,18.44
2018-08-23T01:01:48.425Z,18.38
2018-08-23T01:03:09.420Z,18.39
2018-08-23T01:03:48.920Z,18.31
2018-08-23T01:05:09.123Z,18.41
2018-08-23T01:06:09.935Z,18.35
2018-08-23T01:06:48.319Z,18.36
2018-08-23T01:08:10.424Z,18.35
2018-08-23T01:09:10.422Z,18.31
2018-08-23T01:11:43.235Z,18.17
2018-08-23T01:12:20.810Z,18.04
2018-08-23T01:13:44.305Z,18.05
2018-08-23T01:14:21.306Z,18.16
2018-08-23T01:15:20.527Z,18.07
2018-08-23T01:16:21.305Z,18.09
2018-08-23T01:17:21.301Z,18.13
2018-08-23T01:18:44.803Z,18.05
2018-08-23T01:19:48.803Z,18.05
2018-08-23T01:20:21.803Z,18.11
2018-08-23T01:21:22.802Z,18.05
2018-08-23T01:22:24.735Z,18.07
2018-08-23T01:23:43.303Z,18.10
2018-08-23T01:24:21.657Z,18.04
2018-08-23T01:25:22.303Z,18.02
2018-08-23T01:26:24.235Z,18.04
2018-08-23T01:27:43.009Z,18.11
2018-08-23T01:28:36.803Z,18.02
2018-08-23T01:29:43.167Z,17.99
2018-08-23T01:30:22.803Z,17.92
2018-08-23T01:34:26.066Z,17.87
2018-08-23T01:35:41.001Z,17.89
2018-08-23T01:36:26.000Z,17.76
2018-08-23T01:37:46.593Z,17.84
2018-08-23T01:38:26.502Z,17.87
2018-08-23T01:39:40.510Z,17.86
2018-08-23T01:40:26.502Z,17.81
2018-08-23T01:41:27.000Z,17.79
2018-08-23T01:42:27.019Z,17.86
2018-08-23T01:43:27.000Z,17.83
2018-08-23T01:44:27.001Z,17.87
2018-08-23T01:45:27.503Z,17.87
2018-08-23T01:46:27.512Z,17.89
2018-08-23T01:47:26.866Z,17.94
2018-08-23T01:48:27.542Z,17.83
2018-08-23T01:49:28.001Z,17.87
2018-08-23T01:50:27.107Z,17.92
2018-08-23T01:51:28.000Z,17.91
2018-08-23T01:52:28.000Z,17.86
2018-08-23T01:53:28.007Z,17.89
2018-08-23T01:54:28.509Z,17.89
2018-08-23T01:55:55.501Z,17.98
2018-08-23T01:56:28.502Z,17.86
2018-08-23T01:57:28.506Z,17.89
2018-08-23T01:58:28.106Z,17.89
2018-08-23T01:59:29.002Z,17.86
2018-08-23T02:00:43.005Z,17.79
2018-08-23T02:01:49.475Z,17.83
2018-08-23T02:02:50.502Z,17.80
2018-08-23T02:03:31.502Z,17.80
2018-08-23T02:04:28.852Z,17.86
2018-08-23T02:05:29.502Z,17.81
2018-08-23T02:06:30.003Z,17.92
2018-08-23T02:07:29.253Z,17.87
2018-08-23T02:08:31.943Z,17.83
2018-08-23T02:09:31.456Z,17.87
2018-08-23T02:10:50.537Z,17.79
2018-08-23T02:11:30.503Z,17.80
2018-08-23T02:12:31.935Z,17.77
2018-08-23T02:15:22.282Z,17.71
2018-08-23T02:16:06.973Z,17.70
2018-08-23T02:17:02.041Z,17.65
2018-08-23T02:19:33.798Z,17.74
2018-08-23T02:20:35.822Z,17.71
2018-08-23T02:21:33.807Z,17.68
2018-08-23T02:24:07.015Z,17.68
2018-08-23T02:25:05.576Z,17.76
2018-08-23T02:26:05.574Z,17.83
2018-08-23T02:27:05.576Z,17.65
2018-08-23T02:28:27.071Z,17.70
2018-08-23T02:29:06.071Z,17.74
2018-08-23T02:30:06.078Z,17.66
2018-08-23T02:31:08.577Z,17.68
2018-08-23T02:33:58.150Z,17.71
2018-08-23T02:34:43.831Z,17.63
2018-08-23T02:35:59.831Z,17.66
2018-08-23T02:36:58.464Z,17.68
2018-08-23T02:40:41.177Z,17.60
2018-08-23T02:41:41.184Z,17.62
2018-08-23T02:42:40.651Z,17.60
2018-08-23T02:43:41.686Z,17.58
2018-08-23T02:44:43.725Z,17.54
2018-08-23T02:45:41.686Z,17.49
2018-08-23T02:46:41.684Z,17.62
2018-08-23T02:47:42.184Z,17.57
2018-08-23T02:48:43.620Z,17.55
2018-08-23T02:49:41.526Z,17.47
2018-08-23T02:50:42.183Z,17.45
2018-08-23T02:51:42.684Z,17.54
2018-08-23T02:52:41.945Z,17.43
2018-08-23T02:53:42.683Z,17.39
2018-08-23T02:54:42.684Z,17.40
2018-08-23T02:55:43.191Z,17.36
2018-08-23T02:57:04.193Z,17.40
2018-08-23T02:57:42.533Z,17.30
2018-08-23T02:58:43.184Z,17.35
2018-08-23T02:59:42.784Z,17.22
2018-08-23T03:02:42.029Z,17.33
2018-08-23T03:06:23.978Z,17.22
2018-08-23T03:07:31.986Z,17.27
2018-08-23T03:08:18.983Z,17.21
2018-08-23T03:09:38.563Z,17.21
2018-08-23T03:10:19.918Z,17.07
2018-08-23T03:12:49.867Z,17.20
2018-08-23T03:13:49.874Z,17.12
2018-08-23T03:14:49.873Z,17.06
2018-08-23T03:15:51.808Z,17.05
2018-08-23T03:21:24.614Z,17.03
2018-08-23T03:22:24.619Z,17.03
2018-08-23T03:23:24.094Z,17.03
2018-08-23T03:27:41.782Z,17.15
2018-08-23T03:28:48.784Z,17.15
2018-08-23T03:29:41.784Z,17.15
2018-08-23T03:30:27.404Z,17.10
2018-08-23T03:31:28.283Z,17.18
2018-08-23T03:32:28.281Z,17.14
2018-08-23T03:33:28.283Z,17.09
2018-08-23T03:34:28.790Z,17.15
2018-08-23T03:35:28.783Z,17.14
2018-08-23T03:36:28.131Z,17.18
2018-08-23T03:37:28.784Z,17.09
2018-08-23T03:38:30.716Z,17.17
2018-08-23T03:41:00.651Z,17.03
2018-08-23T03:42:02.121Z,17.09
2018-08-23T03:43:00.659Z,17.10
2018-08-23T03:44:22.155Z,17.17
2018-08-23T03:45:00.384Z,17.10
2018-08-23T03:46:00.485Z,17.07
2018-08-23T03:47:01.159Z,16.99
2018-08-23T03:48:01.158Z,17.05
2018-08-23T03:49:02.126Z,17.03
2018-08-23T03:50:01.666Z,17.00
2018-08-23T03:51:01.659Z,17.03
2018-08-23T03:52:01.658Z,17.10
2018-08-23T03:56:28.657Z,17.03
2018-08-23T03:57:05.666Z,17.06
2018-08-23T03:58:26.664Z,17.07
2018-08-23T03:59:06.172Z,17.02
2018-08-23T04:00:08.168Z,17.02
2018-08-23T04:01:06.165Z,16.98
2018-08-23T04:02:06.165Z,16.99
2018-08-23T04:03:20.665Z,17.02
2018-08-23T04:04:05.890Z,16.99
2018-08-23T04:05:05.987Z,17.03
2018-08-23T04:07:38.238Z,16.98
2018-08-23T04:08:59.248Z,16.96
2018-08-23T04:09:37.726Z,16.90
2018-08-23T04:12:09.746Z,16.92
2018-08-23T04:13:10.480Z,16.96
2018-08-23T04:14:30.936Z,16.98
2018-08-23T04:15:34.913Z,16.95
2018-08-23T04:17:42.358Z,16.88
2018-08-23T04:18:48.801Z,16.95
2018-08-23T04:19:41.833Z,16.91
2018-08-23T04:20:42.871Z,16.96
2018-08-23T04:21:42.092Z,16.98
2018-08-23T04:22:42.205Z,16.91
2018-08-23T04:24:03.868Z,16.91
2018-08-23T04:24:43.300Z,16.92
2018-08-23T04:25:43.388Z,16.92
2018-08-23T04:26:43.366Z,16.88
2018-08-23T04:27:43.367Z,16.78
2018-08-23T04:28:44.851Z,16.82
2018-08-23T04:29:42.957Z,16.85
2018-08-23T04:30:43.871Z,16.84
2018-08-23T04:31:43.867Z,16.85
2018-08-23T04:32:44.865Z,16.78
2018-08-23T04:33:43.466Z,16.80
2018-08-23T04:34:50.365Z,16.82
2018-08-23T04:35:44.367Z,16.77
2018-08-23T04:37:05.368Z,16.67
2018-08-23T04:39:22.125Z,16.77
2018-08-23T04:40:30.133Z,16.72
2018-08-23T04:41:16.133Z,16.75
2018-08-23T04:42:36.715Z,16.72
2018-08-23T04:45:08.229Z,16.69
2018-08-23T04:46:08.985Z,16.75
2018-08-23T04:46:47.984Z,16.69
2018-08-23T04:47:48.485Z,16.66
2018-08-23T04:48:50.482Z,16.77
2018-08-23T04:49:47.831Z,16.80
2018-08-23T04:50:48.486Z,16.66
2018-08-23T04:51:48.167Z,16.77
2018-08-23T04:52:48.982Z,16.70
2018-08-23T04:53:49.045Z,16.82
2018-08-23T04:54:48.981Z,16.87
2018-08-23T04:55:48.584Z,16.78
2018-08-23T04:56:49.483Z,16.87
2018-08-23T04:59:41.225Z,16.82
2018-08-23T05:00:20.335Z,16.78
2018-08-23T05:01:41.983Z,16.85
2018-08-23T05:03:54.811Z,16.81
2018-08-23T05:05:13.778Z,16.78
2018-08-23T05:05:54.208Z,16.84
2018-08-23T05:06:53.212Z,16.80
2018-08-23T05:07:53.274Z,16.82
2018-08-23T05:08:53.274Z,16.95
2018-08-23T05:09:54.273Z,16.99
2018-08-23T05:11:13.854Z,17.03
2018-08-23T05:11:59.777Z,17.05
2018-08-23T05:13:14.775Z,17.07
2018-08-23T05:13:59.828Z,17.15
2018-08-23T05:14:59.772Z,17.03
2018-08-23T05:15:53.374Z,17.05
2018-08-23T05:16:53.484Z,17.02
2018-08-23T05:17:56.274Z,16.99
2018-08-23T05:18:54.275Z,17.03
2018-08-23T05:20:15.774Z,17.03
2018-08-23T05:21:21.777Z,17.21
2018-08-23T05:23:26.290Z,17.21
2018-08-23T05:24:26.298Z,17.30
2018-08-23T05:25:26.292Z,17.32
2018-08-23T05:26:28.793Z,17.24
2018-08-23T05:30:28.881Z,17.33
2018-08-23T05:31:28.980Z,17.36
2018-08-23T05:32:29.080Z,17.27
2018-08-23T05:33:32.100Z,17.30
2018-08-23T05:34:30.096Z,17.40
2018-08-23T05:35:30.106Z,17.39
2018-08-23T05:38:22.003Z,17.38
2018-08-23T05:39:28.770Z,17.51
2018-08-23T05:40:01.763Z,17.51
2018-08-23T05:41:25.264Z,17.43
2018-08-23T05:42:06.264Z,17.49
2018-08-23T05:43:23.272Z,17.58
2018-08-23T05:44:02.265Z,17.54
2018-08-23T05:45:23.763Z,17.55
2018-08-23T05:46:02.763Z,17.65
2018-08-23T05:47:23.763Z,17.68
2018-08-23T05:48:02.240Z,17.68
2018-08-23T05:50:48.483Z,17.74
2018-08-23T05:51:56.460Z,17.71
2018-08-23T05:52:34.490Z,17.77
2018-08-23T05:53:48.990Z,17.76
2018-08-23T05:54:35.988Z,17.79
2018-08-23T05:57:06.487Z,17.92
2018-08-23T05:58:28.491Z,17.99
2018-08-23T05:59:06.499Z,17.96
2018-08-23T06:00:27.078Z,18.02
2018-08-23T06:02:40.344Z,18.07
2018-08-23T06:03:39.420Z,18.04
2018-08-23T06:04:59.354Z,18.09
2018-08-23T06:05:37.965Z,18.19
2018-08-23T06:06:40.846Z,18.20
2018-08-23T06:07:52.845Z,18.28
2018-08-23T06:08:38.849Z,18.32
2018-08-23T06:10:38.855Z,18.36
2018-08-23T06:11:38.847Z,18.56
2018-08-23T06:12:38.847Z,18.54
2018-08-23T06:13:39.385Z,18.71
2018-08-23T06:14:39.109Z,18.76
2018-08-23T06:15:39.353Z,18.91
2018-08-23T06:16:39.356Z,19.40
2018-08-23T06:17:39.848Z,19.53
2018-08-23T06:19:00.848Z,19.72
2018-08-23T06:19:39.700Z,19.90
2018-08-23T06:20:39.856Z,20.01
2018-08-23T06:21:40.348Z,20.15
2018-08-23T06:22:40.349Z,20.12
2018-08-23T06:23:40.348Z,20.27
2018-08-23T06:24:40.324Z,20.44
2018-08-23T06:25:41.325Z,20.41
2018-08-23T06:26:41.847Z,20.40
2018-08-23T06:27:40.849Z,20.54
2018-08-23T06:28:40.848Z,20.54
2018-08-23T06:29:40.948Z,20.71
2018-08-23T06:30:41.354Z,20.94
2018-08-23T06:31:41.344Z,21.27
2018-08-23T06:32:41.363Z,21.49
2018-08-23T06:33:41.984Z,21.58
2018-08-23T06:34:41.863Z,21.59
2018-08-23T06:35:42.940Z,21.68
2018-08-23T06:36:42.847Z,21.70
2018-08-23T06:37:41.947Z,21.96
2018-08-23T06:38:42.384Z,22.14
2018-08-23T06:39:42.350Z,22.26
2018-08-23T06:40:42.324Z,22.41
2018-08-23T06:41:42.848Z,22.48
2018-08-23T06:42:42.848Z,22.69
2018-08-23T06:43:43.781Z,22.67
2018-08-23T06:44:42.858Z,22.84
2018-08-23T06:45:43.350Z,22.78
2018-08-23T06:46:43.349Z,22.91
2018-08-23T06:47:43.349Z,22.72
2018-08-23T06:48:43.353Z,22.60
2018-08-23T06:49:43.847Z,22.41
2018-08-23T06:50:43.856Z,22.52
2018-08-23T06:51:43.916Z,22.76
2018-08-23T06:52:43.846Z,22.82
2018-08-23T06:53:43.838Z,23.18
2018-08-23T06:55:05.349Z,23.22
2018-08-23T06:55:44.806Z,23.31
2018-08-23T06:56:44.349Z,23.38
2018-08-23T06:57:45.348Z,23.38
2018-08-23T06:58:51.868Z,23.37
2018-08-23T06:59:44.852Z,23.50
2018-08-23T07:00:44.903Z,23.57
2018-08-23T07:01:45.848Z,23.64
2018-08-23T07:03:06.351Z,23.59
2018-08-23T07:03:45.349Z,23.69
2018-08-23T07:04:46.347Z,23.74
2018-08-23T07:06:45.877Z,23.87
2018-08-23T07:07:46.842Z,23.68
2018-08-23T07:08:45.850Z,23.75
2018-08-23T07:09:45.850Z,23.79
2018-08-23T07:10:46.354Z,23.93
2018-08-23T07:11:46.401Z,24.02
2018-08-23T07:12:46.350Z,24.06
2018-08-23T07:13:46.350Z,24.26
2018-08-23T07:14:46.855Z,24.15
2018-08-23T07:15:46.855Z,24.08
2018-08-23T07:16:46.850Z,23.96
2018-08-23T07:17:46.927Z,24.06
2018-08-23T07:18:47.349Z,24.11
2018-08-23T07:19:47.093Z,24.29
2018-08-23T07:20:47.348Z,24.36
2018-08-23T07:21:47.351Z,24.46
2018-08-23T07:22:48.281Z,24.66
2018-08-23T07:23:47.849Z,24.67
2018-08-23T07:24:47.850Z,24.77
2018-08-23T07:25:49.351Z,24.84
2018-08-23T07:26:48.358Z,24.98
2018-08-23T07:27:48.349Z,24.99
2018-08-23T07:28:48.352Z,25.09
2018-08-23T07:29:48.385Z,25.12
2018-08-23T07:30:48.846Z,25.22
2018-08-23T07:31:48.594Z,25.29
2018-08-23T07:32:48.850Z,25.48
2018-08-23T07:33:48.849Z,25.46
2018-08-23T07:34:49.360Z,25.53
2018-08-23T07:35:49.358Z,25.51
2018-08-23T07:36:49.350Z,25.67
2018-08-23T07:37:50.350Z,25.61
2018-08-23T07:38:49.844Z,25.75
2018-08-23T07:39:49.854Z,25.76
2018-08-23T07:40:49.850Z,25.79
2018-08-23T07:41:49.837Z,25.81
2018-08-23T07:42:50.356Z,25.91
2018-08-23T07:43:50.350Z,25.90
2018-08-23T07:44:51.349Z,25.93
2018-08-23T07:45:50.351Z,25.96
2018-08-23T07:46:50.850Z,26.03
2018-08-23T07:47:50.584Z,25.94
2018-08-23T07:48:50.751Z,25.85
2018-08-23T07:49:50.869Z,25.94
2018-08-23T07:50:51.349Z,25.98
2018-08-23T07:52:12.350Z,26.06
2018-08-23T07:52:51.377Z,26.11
2018-08-23T07:53:51.356Z,26.19
2018-08-23T07:54:51.856Z,26.29
2018-08-23T07:55:51.855Z,26.12
2018-08-23T07:56:51.709Z,26.36
2018-08-23T07:57:51.851Z,26.36
2018-08-23T07:58:53.784Z,26.31
2018-08-23T07:59:52.351Z,26.36
2018-08-23T08:00:53.362Z,26.44
2018-08-23T08:01:52.350Z,26.36
2018-08-23T08:02:52.851Z,26.34
2018-08-23T08:03:52.851Z,26.34
2018-08-23T08:04:52.859Z,26.41
2018-08-23T08:05:53.359Z,26.34
2018-08-23T08:06:52.964Z,26.36
2018-08-23T08:08:00.354Z,26.49
2018-08-23T08:08:53.351Z,26.50
2018-08-23T08:09:53.356Z,26.54
2018-08-23T08:10:53.469Z,26.59
2018-08-23T08:11:53.853Z,26.61
2018-08-23T08:12:53.702Z,26.51
2018-08-23T08:13:53.852Z,26.59
2018-08-23T08:14:54.426Z,26.60
2018-08-23T08:15:54.355Z,26.61
2018-08-23T08:16:54.359Z,26.53
2018-08-23T08:17:54.364Z,26.60
2018-08-23T08:18:54.852Z,26.65
2018-08-23T08:19:54.856Z,26.68
2018-08-23T08:20:54.934Z,26.72
2018-08-23T08:21:54.841Z,26.83
2018-08-23T08:23:16.353Z,26.81
2018-08-23T08:23:55.083Z,26.98
2018-08-23T08:24:55.225Z,26.97
2018-08-23T08:25:55.353Z,27.01
2018-08-23T08:26:55.853Z,27.12
2018-08-23T08:27:55.853Z,27.13
2018-08-23T08:28:55.853Z,27.11
2018-08-23T08:29:55.853Z,27.13
2018-08-23T08:30:56.389Z,27.08
2018-08-23T08:31:56.073Z,27.12
2018-08-23T08:32:56.356Z,26.98
2018-08-23T08:33:56.362Z,27.08
2018-08-23T08:34:56.854Z,27.08
2018-08-23T08:46:35.205Z,26.09
2018-08-23T08:47:43.136Z,26.08
2018-08-23T08:48:29.128Z,26.01
